Time;durP1;ratioP1;P1;durP2;ratioP2;P2;SDS_P1;SDS_P2;PMS_P1;PMS_P2;Temp;Humidity;BMP_temperature;BMP_pressure;BME280_temperature;BME280_humidity;BME280_pressure;Samples;Min_cycle;Max_cycle;Signal;HPM_P1;HPM_P2
2021/03/16 00:01:22;;;;;;;10.00;0.38;;;5.70;99.90;;;;;;5032746;28;20149;-81
2021/03/16 00:03:58;;;;;;;8.90;0.40;;;5.80;99.90;;;;;;5013953;28;20034;-81
2021/03/16 00:06:43;;;;;;;9.95;0.57;;;5.90;99.90;;;;;;5031012;28;20124;-81
2021/03/16 00:09:10;;;;;;;9.55;0.35;;;5.80;99.90;;;;;;5012565;28;20040;-81
2021/03/16 00:11:35;;;;;;;9.50;0.90;;;5.80;99.90;;;;;;5012240;28;20100;-81
2021/03/16 00:14:01;;;;;;;12.20;1.02;;;5.80;99.90;;;;;;5012225;28;20084;-81
2021/03/16 00:16:27;;;;;;;8.88;0.40;;;5.80;99.90;;;;;;5012057;28;20036;-81
2021/03/16 00:18:53;;;;;;;13.05;0.82;;;5.80;99.90;;;;;;5012182;28;20057;-81
2021/03/16 00:21:19;;;;;;;8.70;0.50;;;5.90;99.90;;;;;;5012006;28;20037;-80
2021/03/16 00:23:45;;;;;;;9.73;0.55;;;5.90;99.90;;;;;;5012358;28;20057;-81
2021/03/16 00:26:10;;;;;;;9.73;0.77;;;5.80;99.90;;;;;;5012198;28;20444;-81
2021/03/16 00:28:36;;;;;;;8.85;0.40;;;5.80;99.90;;;;;;5012116;28;20533;-81
2021/03/16 00:31:01;;;;;;;11.77;0.60;;;5.80;99.90;;;;;;5011996;28;20033;-81
2021/03/16 00:33:27;;;;;;;10.50;1.25;;;5.70;99.90;;;;;;5028308;28;20056;-81
2021/03/16 00:35:53;;;;;;;8.57;1.30;;;5.70;99.90;;;;;;5011816;28;20056;-81
2021/03/16 00:38:19;;;;;;;15.00;0.63;;;5.70;99.90;;;;;;5011575;28;20180;-80
2021/03/16 00:40:44;;;;;;;10.57;0.40;;;5.60;99.90;;;;;;5028237;28;20030;-81
2021/03/16 00:43:10;;;;;;;10.45;0.80;;;5.60;99.90;;;;;;5011930;28;20033;-81
2021/03/16 00:45:36;;;;;;;15.10;0.70;;;5.60;99.90;;;;;;5011974;28;20034;-81
2021/03/16 00:48:02;;;;;;;12.90;0.70;;;5.60;99.90;;;;;;5011826;28;20025;-81
2021/03/16 00:50:28;;;;;;;13.73;0.75;;;5.60;99.90;;;;;;5011375;28;20037;-80
2021/03/16 00:52:55;;;;;;;8.43;0.30;;;5.50;99.90;;;;;;5027872;28;20029;-81
2021/03/16 00:55:21;;;;;;;12.07;0.70;;;5.70;99.90;;;;;;5011870;28;20101;-81
2021/03/16 00:57:47;;;;;;;11.18;0.98;;;5.70;99.90;;;;;;5011540;28;20030;-81
2021/03/16 01:00:13;;;;;;;13.18;0.65;;;5.60;99.90;;;;;;5011502;28;20025;-80
2021/03/16 01:02:38;;;;;;;9.25;0.63;;;5.60;99.90;;;;;;5011405;28;20037;-80
2021/03/16 01:05:04;;;;;;;10.60;0.60;;;5.60;99.90;;;;;;5011344;28;20042;-80
2021/03/16 01:07:30;;;;;;;8.68;0.50;;;5.60;99.90;;;;;;5011248;28;20120;-81
2021/03/16 01:09:56;;;;;;;10.02;0.47;;;5.60;99.90;;;;;;5011544;28;20073;-81
2021/03/16 01:12:22;;;;;;;13.68;0.63;;;5.60;99.90;;;;;;5011455;28;20033;-81
2021/03/16 01:14:48;;;;;;;8.60;0.38;;;5.70;99.90;;;;;;5027626;28;20455;-80
2021/03/16 01:17:13;;;;;;;9.65;0.50;;;5.60;99.90;;;;;;5008126;28;20026;-81
2021/03/16 01:19:39;;;;;;;12.65;0.40;;;5.70;99.90;;;;;;5025797;28;20033;-80
2021/03/16 01:22:05;;;;;;;9.52;0.40;;;5.70;99.90;;;;;;5008153;28;20026;-80
2021/03/16 01:24:30;;;;;;;11.55;0.40;;;5.60;99.90;;;;;;5024359;28;20038;-81
2021/03/16 01:26:56;;;;;;;11.32;0.55;;;5.60;99.90;;;;;;5024352;28;20165;-80
2021/03/16 01:29:22;;;;;;;12.85;0.77;;;5.70;99.90;;;;;;5008089;28;20034;-80
2021/03/16 01:31:48;;;;;;;7.15;0.30;;;5.60;99.90;;;;;;5024200;28;20033;-81
2021/03/16 01:34:13;;;;;;;10.75;0.30;;;5.50;99.90;;;;;;5008183;28;20076;-80
2021/03/16 01:36:39;;;;;;;14.73;0.40;;;5.40;99.90;;;;;;5024145;28;20037;-80
2021/03/16 01:39:05;;;;;;;8.90;0.40;;;5.50;99.90;;;;;;5024360;28;20053;-80
2021/03/16 01:41:31;;;;;;;11.38;0.47;;;5.50;99.90;;;;;;5007723;28;20478;-80
2021/03/16 01:43:56;;;;;;;12.25;0.43;;;5.40;99.90;;;;;;5007825;28;20045;-81
2021/03/16 01:46:22;;;;;;;7.30;0.40;;;5.30;99.90;;;;;;5024062;28;20050;-81
2021/03/16 01:48:49;;;;;;;15.18;0.40;;;5.40;99.90;;;;;;5024290;28;20053;-81
2021/03/16 01:51:14;;;;;;;11.52;0.77;;;5.40;99.90;;;;;;5023965;28;20133;-81
2021/03/16 01:53:41;;;;;;;14.27;0.50;;;5.50;99.90;;;;;;5007879;28;20030;-80
2021/03/16 01:56:10;;;;;;;11.50;0.57;;;5.40;99.90;;;;;;5007765;28;20038;-81
2021/03/16 01:58:58;;;;;;;18.33;1.25;;;5.40;99.90;;;;;;5010689;28;20041;-80
2021/03/16 02:01:43;;;;;;;8.90;0.50;;;5.40;99.90;;;;;;5010344;28;20094;-81
2021/03/16 02:04:27;;;;;;;8.95;0.50;;;5.50;99.90;;;;;;5010684;28;20040;-80
2021/03/16 02:07:25;;;;;;;10.68;0.50;;;5.50;99.90;;;;;;5025393;28;20122;-82
2021/03/16 02:10:30;;;;;;;13.60;0.85;;;5.50;99.90;;;;;;5010153;28;20123;-81
2021/03/16 02:13:23;;;;;;;11.65;0.40;;;5.60;99.90;;;;;;5010362;28;20060;-80
2021/03/16 02:16:13;;;;;;;9.18;0.35;;;5.60;99.90;;;;;;5017071;28;20040;-81
2021/03/16 02:18:59;;;;;;;7.70;0.50;;;5.60;99.90;;;;;;5022848;28;20445;-80
2021/03/16 02:21:45;;;;;;;9.40;0.50;;;5.50;99.90;;;;;;5031496;28;20060;-80
2021/03/16 02:24:49;;;;;;;8.02;0.30;;;5.50;99.90;;;;;;5033173;28;20045;-80
2021/03/16 02:28:10;;;;;;;8.70;0.50;;;5.50;99.90;;;;;;5033580;28;20041;-80
2021/03/16 02:30:56;;;;;;;5.75;0.30;;;5.40;99.90;;;;;;4996214;28;20087;-81
2021/03/16 02:33:42;;;;;;;11.13;0.40;;;5.30;99.90;;;;;;5033438;28;20044;-81
2021/03/16 02:36:28;;;;;;;6.28;0.32;;;5.40;99.90;;;;;;5048220;28;20083;-80
2021/03/16 02:39:14;;;;;;;12.25;0.73;;;5.30;99.90;;;;;;5033093;28;20045;-81
2021/03/16 02:42:01;;;;;;;6.05;0.20;;;5.30;99.90;;;;;;5033145;28;20051;-81
2021/03/16 02:44:46;;;;;;;8.80;0.40;;;5.30;99.90;;;;;;5048357;28;20128;-81
2021/03/16 02:47:30;;;;;;;5.38;0.50;;;5.30;99.90;;;;;;5033136;28;20080;-81
2021/03/16 02:50:15;;;;;;;6.70;0.35;;;5.40;99.90;;;;;;5032882;28;20056;-81
2021/03/16 02:52:59;;;;;;;10.02;0.50;;;5.40;99.90;;;;;;5032905;28;20064;-80
2021/03/16 02:55:45;;;;;;;8.70;0.30;;;5.40;99.90;;;;;;5032757;28;20060;-81
2021/03/16 02:58:32;;;;;;;12.57;0.80;;;5.40;99.90;;;;;;5032914;28;20061;-80
2021/03/16 03:01:18;;;;;;;9.07;0.57;;;5.40;99.90;;;;;;5032852;28;20084;-81
2021/03/16 03:04:05;;;;;;;10.20;0.50;;;5.40;99.90;;;;;;5047912;28;20105;-80
2021/03/16 03:06:51;;;;;;;9.82;0.40;;;5.40;99.90;;;;;;5028600;28;20066;-81
2021/03/16 03:09:36;;;;;;;7.93;0.38;;;5.40;99.90;;;;;;5012985;28;20406;-81
2021/03/16 03:12:20;;;;;;;9.95;0.40;;;5.40;99.90;;;;;;5012834;28;20077;-80
2021/03/16 03:15:08;;;;;;;6.88;0.50;;;5.40;99.90;;;;;;5012937;28;20491;-81
2021/03/16 03:17:52;;;;;;;10.63;0.50;;;5.40;99.90;;;;;;4993151;28;20093;-81
2021/03/16 03:20:37;;;;;;;9.23;0.38;;;5.40;99.90;;;;;;5006948;28;20046;-81
2021/03/16 03:23:32;;;;;;;6.50;0.28;;;5.40;99.90;;;;;;4993265;28;20062;-81
2021/03/16 03:26:21;;;;;;;5.40;0.30;;;5.40;99.90;;;;;;5007731;28;20074;-81
2021/03/16 03:29:09;;;;;;;8.43;0.68;;;5.40;99.90;;;;;;4993170;28;20034;-81
2021/03/16 03:31:54;;;;;;;7.50;0.30;;;5.40;99.90;;;;;;4992841;28;20045;-80
2021/03/16 03:34:41;;;;;;;7.80;0.30;;;5.40;99.90;;;;;;5006959;28;20037;-81
2021/03/16 03:37:26;;;;;;;6.82;0.25;;;5.40;99.90;;;;;;5006567;28;20048;-81
2021/03/16 03:40:13;;;;;;;10.45;1.30;;;5.30;99.90;;;;;;5007670;28;20037;-81
2021/03/16 03:43:04;;;;;;;12.00;0.40;;;5.30;99.90;;;;;;4992875;28;20049;-80
2021/03/16 03:45:51;;;;;;;11.55;0.40;;;5.30;99.90;;;;;;5006855;28;20076;-80
2021/03/16 03:48:36;;;;;;;7.90;0.52;;;5.30;99.90;;;;;;4993607;28;20041;-81
2021/03/16 03:51:21;;;;;;;10.43;0.60;;;5.30;99.90;;;;;;5007473;28;20088;-81
2021/03/16 03:54:07;;;;;;;8.77;0.40;;;5.30;99.90;;;;;;5013543;28;20068;-81
2021/03/16 03:56:53;;;;;;;9.52;0.73;;;5.40;99.90;;;;;;5012251;28;20441;-81
2021/03/16 03:59:41;;;;;;;10.57;0.65;;;5.40;99.90;;;;;;5012208;28;20125;-81
2021/03/16 04:02:26;;;;;;;9.23;0.30;;;5.40;99.90;;;;;;5012276;28;20457;-81
2021/03/16 04:05:15;;;;;;;5.63;0.40;;;5.40;99.90;;;;;;5011787;28;20133;-81
2021/03/16 04:08:02;;;;;;;11.35;0.30;;;5.40;99.90;;;;;;5031508;23;20057;-80
2021/03/16 04:10:46;;;;;;;9.82;0.40;;;5.40;99.90;;;;;;5032018;28;20041;-81
2021/03/16 04:13:31;;;;;;;8.13;0.50;;;5.30;99.90;;;;;;5032153;28;20041;-80
2021/03/16 04:16:22;;;;;;;4.65;0.30;;;5.30;99.90;;;;;;5047000;28;20106;-81
2021/03/16 04:19:06;;;;;;;8.15;0.40;;;5.30;99.90;;;;;;5046909;28;20040;-81
2021/03/16 04:21:52;;;;;;;5.28;0.85;;;5.40;99.90;;;;;;5031871;28;20175;-80
2021/03/16 04:24:36;;;;;;;5.65;0.20;;;5.30;99.90;;;;;;5031788;28;20040;-80
2021/03/16 04:27:21;;;;;;;2.45;0.20;;;5.30;99.90;;;;;;5031666;28;20045;-80
2021/03/16 04:30:08;;;;;;;4.18;0.40;;;5.30;99.90;;;;;;5032218;28;20046;-80
2021/03/16 04:32:53;;;;;;;7.43;0.30;;;5.30;99.90;;;;;;5046745;28;20092;-81
2021/03/16 04:35:37;;;;;;;9.43;0.43;;;5.30;99.90;;;;;;5031529;28;20055;-81
2021/03/16 04:38:21;;;;;;;11.27;0.40;;;5.30;99.90;;;;;;5046558;28;20060;-80
2021/03/16 04:41:06;;;;;;;9.40;0.60;;;5.40;99.90;;;;;;5031377;28;20036;-81
2021/03/16 04:43:50;;;;;;;6.82;0.60;;;5.30;99.90;;;;;;5030796;28;20044;-81
2021/03/16 04:46:35;;;;;;;5.88;0.25;;;5.30;99.90;;;;;;5031149;28;20099;-80
2021/03/16 04:49:19;;;;;;;8.73;0.52;;;5.30;99.90;;;;;;5046090;28;20107;-81
2021/03/16 04:52:03;;;;;;;9.27;0.60;;;5.30;99.90;;;;;;5030863;28;20048;-81
2021/03/16 04:54:47;;;;;;;9.77;0.82;;;5.40;99.90;;;;;;5031125;28;20052;-80
2021/03/16 04:57:31;;;;;;;7.97;0.32;;;5.40;99.90;;;;;;5030938;28;20067;-80
2021/03/16 05:00:16;;;;;;;16.55;0.65;;;5.30;99.90;;;;;;5045848;28;20059;-81
2021/03/16 05:03:00;;;;;;;6.80;0.50;;;5.30;99.90;;;;;;5030850;28;20106;-81
2021/03/16 05:09:34;;;;;;;7.15;0.40;;;5.20;99.90;;;;;;4906501;29;20067;-81
2021/03/16 05:12:18;;;;;;;8.35;1.00;;;5.20;99.90;;;;;;4907773;29;20069;-81
2021/03/16 05:15:06;;;;;;;7.53;0.40;;;5.20;99.90;;;;;;4902145;29;20069;-81
2021/03/16 05:17:51;;;;;;;6.45;0.22;;;5.20;99.90;;;;;;4885320;29;20516;-81
2021/03/16 05:20:35;;;;;;;7.18;0.22;;;5.20;99.90;;;;;;4894179;29;20129;-81
2021/03/16 05:23:19;;;;;;;7.05;0.20;;;5.20;99.90;;;;;;4907764;29;20133;-81
2021/03/16 05:26:03;;;;;;;11.35;0.60;;;5.20;99.90;;;;;;4907641;29;20052;-81
2021/03/16 05:28:47;;;;;;;11.25;0.40;;;5.10;99.90;;;;;;4907676;29;20119;-81
2021/03/16 05:31:32;;;;;;;7.38;0.57;;;5.10;99.90;;;;;;4888968;29;20044;-81
2021/03/16 05:34:16;;;;;;;8.55;0.60;;;5.10;99.90;;;;;;4889079;29;20116;-81
2021/03/16 05:37:00;;;;;;;8.25;0.40;;;5.10;99.90;;;;;;4888948;29;20043;-81
2021/03/16 05:39:45;;;;;;;8.90;0.50;;;5.00;99.90;;;;;;4875608;29;20138;-81
2021/03/16 05:42:30;;;;;;;15.23;0.50;;;5.10;99.90;;;;;;4889002;29;20126;-81
2021/03/16 05:45:15;;;;;;;11.07;0.32;;;5.10;99.90;;;;;;4904730;28;20053;-81
2021/03/16 05:48:00;;;;;;;17.42;0.60;;;5.10;99.90;;;;;;4991229;28;20124;-82
2021/03/16 05:50:44;;;;;;;11.95;0.60;;;5.10;99.90;;;;;;4999893;28;20098;-81
2021/03/16 05:53:30;;;;;;;19.13;1.50;;;5.20;99.90;;;;;;4997848;28;20046;-81
2021/03/16 05:56:15;;;;;;;15.80;1.33;;;5.10;99.90;;;;;;5004303;28;20113;-81
2021/03/16 05:59:01;;;;;;;8.63;0.50;;;5.20;99.90;;;;;;5014585;28;20045;-81
2021/03/16 06:01:45;;;;;;;18.50;0.80;;;5.10;99.90;;;;;;5014307;28;20118;-81
2021/03/16 06:04:30;;;;;;;9.30;0.55;;;5.20;99.90;;;;;;5009497;28;20044;-81
2021/03/16 06:07:15;;;;;;;14.60;1.00;;;5.10;99.90;;;;;;5013564;28;20100;-82
2021/03/16 06:09:59;;;;;;;13.82;1.35;;;5.20;99.90;;;;;;5013245;28;20056;-81
2021/03/16 06:12:43;;;;;;;11.68;0.40;;;5.20;99.90;;;;;;5013121;28;20042;-81
2021/03/16 06:15:27;;;;;;;18.90;0.85;;;5.20;99.90;;;;;;5009907;28;20053;-81
2021/03/16 06:18:23;;;;;;;13.07;1.15;;;5.20;99.90;;;;;;4998489;28;20098;-82
2021/03/16 06:21:07;;;;;;;14.10;0.63;;;5.30;99.90;;;;;;5008094;28;20088;-81
2021/03/16 06:23:59;;;;;;;9.70;0.50;;;5.20;99.90;;;;;;4993501;28;20099;-81
2021/03/16 06:26:48;;;;;;;11.27;0.77;;;5.20;99.90;;;;;;4993743;28;20052;-81
2021/03/16 06:29:40;;;;;;;11.43;0.45;;;5.20;99.90;;;;;;4993477;28;20045;-81
2021/03/16 06:32:32;;;;;;;9.38;0.70;;;5.10;99.90;;;;;;4993699;28;20053;-82
2021/03/16 06:35:16;;;;;;;9.75;0.60;;;5.10;99.90;;;;;;4993597;28;20108;-81
2021/03/16 06:38:08;;;;;;;12.23;1.38;;;5.10;99.90;;;;;;4997139;28;20145;-82
2021/03/16 06:40:53;;;;;;;12.43;0.77;;;5.10;99.90;;;;;;5012806;28;20188;-81
2021/03/16 06:43:38;;;;;;;11.38;0.57;;;5.20;99.90;;;;;;5012923;28;20060;-82
2021/03/16 06:46:39;;;;;;;11.32;0.98;;;5.30;99.90;;;;;;5012880;28;20060;-82
2021/03/16 06:49:25;;;;;;;11.88;0.70;;;5.40;99.90;;;;;;5012871;28;20041;-82
2021/03/16 06:52:11;;;;;;;11.25;0.60;;;5.60;99.90;;;;;;5012783;28;20081;-82
2021/03/16 06:54:55;;;;;;;9.82;0.30;;;5.70;99.90;;;;;;5012133;28;20037;-82
2021/03/16 06:57:40;;;;;;;6.28;0.50;;;5.70;99.90;;;;;;5012575;28;20109;-82
2021/03/16 07:00:24;;;;;;;18.30;0.65;;;5.70;99.90;;;;;;5012426;28;20445;-82
2021/03/16 07:03:13;;;;;;;11.43;0.63;;;5.80;99.90;;;;;;5012565;28;20080;-81
2021/03/16 07:06:19;;;;;;;9.40;1.80;;;5.90;99.90;;;;;;5011856;28;20103;-82
2021/03/16 07:09:04;;;;;;;11.07;0.55;;;5.90;99.90;;;;;;4933507;29;20107;-82
2021/03/16 07:11:51;;;;;;;8.82;0.70;;;6.00;99.90;;;;;;4947024;29;20066;-81
2021/03/16 07:14:37;;;;;;;8.82;1.02;;;6.00;99.90;;;;;;4933865;29;20108;-82
2021/03/16 07:17:23;;;;;;;10.30;0.98;;;6.10;99.90;;;;;;4946732;29;20043;-82
2021/03/16 07:20:08;;;;;;;12.82;0.70;;;6.20;99.90;;;;;;4933538;29;20051;-81
2021/03/16 07:22:56;;;;;;;16.27;0.82;;;6.30;99.90;;;;;;4933161;29;20129;-82
2021/03/16 07:25:42;;;;;;;8.55;0.50;;;6.30;99.90;;;;;;4933311;29;20136;-82
2021/03/16 07:28:27;;;;;;;6.47;0.50;;;6.30;99.90;;;;;;4933509;29;20071;-81
2021/03/16 07:31:12;;;;;;;8.60;0.40;;;6.20;99.90;;;;;;4933222;29;20054;-82
2021/03/16 07:34:04;;;;;;;11.65;0.70;;;6.20;99.90;;;;;;4933471;29;20063;-82
2021/03/16 07:36:51;;;;;;;9.32;0.50;;;6.00;99.90;;;;;;4946718;29;20538;-81
2021/03/16 07:39:36;;;;;;;5.93;0.50;;;6.00;99.90;;;;;;4933133;29;20051;-81
2021/03/16 07:42:20;;;;;;;5.90;0.40;;;5.90;99.90;;;;;;4933314;29;20042;-82
2021/03/16 07:45:05;;;;;;;5.43;0.40;;;6.00;99.90;;;;;;4943071;28;20095;-82
2021/03/16 07:47:50;;;;;;;6.70;0.38;;;6.10;99.90;;;;;;5005762;28;20048;-81
2021/03/16 07:50:35;;;;;;;5.45;0.40;;;6.10;99.90;;;;;;5011694;28;20044;-82
2021/03/16 07:53:26;;;;;;;7.88;0.50;;;6.20;99.90;;;;;;5011434;28;20080;-82
2021/03/16 07:56:13;;;;;;;8.55;0.50;;;6.30;99.90;;;;;;5011504;28;20048;-82
2021/03/16 07:58:57;;;;;;;15.90;0.50;;;6.40;99.90;;;;;;5026131;28;20095;-81
2021/03/16 08:01:49;;;;;;;8.00;0.60;;;6.40;99.90;;;;;;5011142;28;20068;-82
2021/03/16 08:04:38;;;;;;;12.82;0.70;;;6.50;99.90;;;;;;5011342;28;20037;-82
2021/03/16 08:07:26;;;;;;;18.75;0.80;;;6.70;99.90;;;;;;5011414;28;20390;-82
2021/03/16 08:10:11;;;;;;;12.38;0.60;;;6.60;99.90;;;;;;5011319;28;20065;-82
2021/03/16 08:13:01;;;;;;;14.30;0.60;;;6.50;99.90;;;;;;5011311;28;20041;-82
2021/03/16 08:15:47;;;;;;;9.15;0.60;;;6.50;99.90;;;;;;5011407;28;20041;-82
2021/03/16 08:18:34;;;;;;;9.73;0.85;;;6.50;99.90;;;;;;5025658;28;20056;-82
2021/03/16 08:21:19;;;;;;;9.65;0.50;;;6.40;99.90;;;;;;5025989;28;20087;-84
2021/03/16 08:24:11;;;;;;;8.45;0.50;;;6.30;99.90;;;;;;5011279;28;20041;-83
2021/03/16 08:26:56;;;;;;;9.57;0.60;;;6.20;99.90;;;;;;5011247;28;20049;-81
2021/03/16 08:29:48;;;;;;;3.72;0.30;;;6.20;99.90;;;;;;5010992;28;20064;-83
2021/03/16 08:32:36;;;;;;;5.30;0.30;;;5.70;99.90;;;;;;5002048;28;20411;-83
2021/03/16 08:35:21;;;;;;;3.28;0.20;;;5.40;99.90;;;;;;5000820;28;20049;-83
2021/03/16 08:38:07;;;;;;;6.00;0.55;;;5.40;99.90;;;;;;5021873;28;20121;-83
2021/03/16 08:41:06;;;;;;;2.90;0.20;;;5.40;99.90;;;;;;5011027;28;20057;-83
2021/03/16 08:43:51;;;;;;;3.67;0.32;;;5.50;99.90;;;;;;5010911;28;20098;-82
2021/03/16 08:46:38;;;;;;;6.95;0.22;;;5.40;99.90;;;;;;5010790;28;20068;-83
2021/03/16 08:49:24;;;;;;;3.85;0.20;;;5.40;99.90;;;;;;4987142;28;20600;-82
2021/03/16 08:52:29;;;;;;;4.97;0.10;;;5.40;99.90;;;;;;5004602;28;20084;-83
2021/03/16 08:55:23;;;;;;;2.40;0.10;;;5.60;99.90;;;;;;5010291;28;20382;-83
2021/03/16 08:58:10;;;;;;;4.22;0.57;;;5.80;99.90;;;;;;5010452;28;20068;-83
2021/03/16 09:00:54;;;;;;;3.97;0.15;;;5.90;99.90;;;;;;5010636;28;20080;-83
2021/03/16 09:03:38;;;;;;;2.38;0.10;;;6.00;99.90;;;;;;5010701;28;20092;-84
2021/03/16 09:06:22;;;;;;;2.88;0.10;;;6.20;99.90;;;;;;5010322;28;20114;-84
2021/03/16 09:09:08;;;;;;;5.80;0.30;;;6.30;99.90;;;;;;5010496;28;20045;-84
2021/03/16 09:11:54;;;;;;;2.97;0.20;;;6.40;99.90;;;;;;5010413;28;20085;-83
2021/03/16 09:14:38;;;;;;;3.55;0.30;;;6.70;99.90;;;;;;5010742;28;20076;-85
2021/03/16 09:17:23;;;;;;;6.95;0.30;;;6.90;99.90;;;;;;4993975;28;20042;-84
2021/03/16 09:20:22;;;;;;;9.52;0.40;;;7.00;99.90;;;;;;4990908;28;20113;-83
2021/03/16 09:23:09;;;;;;;7.25;0.40;;;7.10;99.90;;;;;;4990774;28;20061;-83
2021/03/16 09:25:54;;;;;;;9.65;0.52;;;7.30;99.90;;;;;;4990812;28;20053;-83
2021/03/16 09:28:38;;;;;;;4.75;0.45;;;7.20;99.90;;;;;;4993536;28;20042;-83
2021/03/16 09:31:23;;;;;;;11.35;0.80;;;7.00;99.90;;;;;;4997111;28;20045;-84
2021/03/16 09:34:07;;;;;;;8.38;0.60;;;6.80;99.90;;;;;;4997089;28;20158;-83
2021/03/16 09:37:02;;;;;;;7.25;0.40;;;6.70;99.90;;;;;;4997204;28;20069;-83
2021/03/16 09:39:29;;;;;;;10.07;0.55;;;6.80;99.90;;;;;;5011822;28;20042;-83
2021/03/16 09:42:15;;;;;;;6.63;0.50;;;6.90;99.90;;;;;;4980916;28;20018;-83
2021/03/16 09:44:46;;;;;;;9.93;0.88;;;7.10;99.90;;;;;;4978148;28;20022;-85
2021/03/16 09:47:23;;;;;;;7.53;1.35;;;7.40;99.90;;;;;;4978353;28;20053;-83
2021/03/16 09:49:48;;;;;;;13.23;0.93;;;7.60;99.90;;;;;;4995466;28;20030;-83
2021/03/16 09:52:14;;;;;;;7.47;0.50;;;7.60;99.90;;;;;;4997903;28;20029;-83
2021/03/16 09:54:42;;;;;;;10.68;0.70;;;7.70;99.90;;;;;;4997494;28;20026;-83
2021/03/16 09:57:11;;;;;;;13.60;0.65;;;7.70;99.90;;;;;;4997418;28;20022;-84
2021/03/16 09:59:41;;;;;;;8.27;0.50;;;7.80;99.90;;;;;;4997442;28;20045;-83
2021/03/16 10:02:08;;;;;;;6.47;0.40;;;7.70;99.90;;;;;;5014008;28;20032;-83
2021/03/16 10:04:45;;;;;;;11.18;0.60;;;7.70;99.90;;;;;;5013718;28;20034;-83
2021/03/16 10:07:10;;;;;;;8.27;0.60;;;7.60;99.90;;;;;;4997414;28;20048;-83
2021/03/16 10:09:40;;;;;;;6.65;0.50;;;7.80;99.90;;;;;;5007828;28;20050;-83
2021/03/16 10:12:20;;;;;;;10.43;2.03;;;7.90;99.90;;;;;;5013785;28;20036;-83
2021/03/16 10:14:52;;;;;;;8.02;0.75;;;7.70;99.90;;;;;;5013644;28;20033;-83
2021/03/16 10:17:29;;;;;;;6.22;0.40;;;7.80;99.90;;;;;;5013451;28;20045;-83
2021/03/16 10:19:56;;;;;;;9.57;1.13;;;8.00;99.90;;;;;;5013380;28;20030;-83
2021/03/16 10:22:30;;;;;;;8.80;0.40;;;7.90;99.90;;;;;;5013591;28;20041;-83
2021/03/16 10:25:01;;;;;;;5.20;0.40;;;7.50;99.90;;;;;;4997305;28;20026;-83
2021/03/16 10:27:32;;;;;;;12.55;0.55;;;7.40;99.90;;;;;;5013462;28;20056;-83
2021/03/16 10:30:09;;;;;;;5.10;0.30;;;7.20;99.90;;;;;;5029837;28;20033;-83
2021/03/16 10:32:37;;;;;;;4.82;0.30;;;6.70;99.90;;;;;;4997308;28;20038;-84
2021/03/16 10:35:03;;;;;;;2.38;0.10;;;6.20;99.90;;;;;;5013331;28;20037;-83
2021/03/16 10:37:29;;;;;;;3.42;0.10;;;5.90;99.90;;;;;;4997136;28;20029;-83
2021/03/16 10:39:55;;;;;;;1.20;0.10;;;5.80;99.90;;;;;;5011728;28;20056;-83
2021/03/16 10:42:21;;;;;;;2.20;0.10;;;5.80;99.90;;;;;;4994044;28;20030;-83
2021/03/16 10:44:47;;;;;;;2.63;0.10;;;5.80;99.90;;;;;;5010275;28;20081;-84
2021/03/16 10:47:13;;;;;;;1.88;0.10;;;5.80;99.90;;;;;;4994200;28;20038;-84
2021/03/16 10:49:39;;;;;;;3.03;0.10;;;5.90;99.90;;;;;;4993919;28;20026;-84
2021/03/16 10:52:05;;;;;;;7.15;0.20;;;5.90;99.90;;;;;;4994057;28;20037;-84
2021/03/16 10:54:33;;;;;;;2.08;0.10;;;5.90;99.90;;;;;;5010389;28;20037;-84
2021/03/16 10:56:59;;;;;;;6.40;0.20;;;6.10;99.90;;;;;;4994165;28;20037;-83
2021/03/16 10:59:24;;;;;;;1.55;0.10;;;6.30;99.90;;;;;;5010320;28;20029;-84
2021/03/16 11:01:50;;;;;;;1.17;0.08;;;6.60;99.90;;;;;;4993717;28;20030;-84
2021/03/16 11:04:19;;;;;;;1.70;0.10;;;6.60;99.90;;;;;;5009975;28;20030;-85
2021/03/16 11:06:45;;;;;;;3.13;0.15;;;7.00;99.90;;;;;;4993534;28;20069;-83
2021/03/16 11:09:12;;;;;;;4.88;0.20;;;7.00;99.90;;;;;;5003719;28;20053;-84
2021/03/16 11:11:38;;;;;;;3.13;0.20;;;7.00;99.90;;;;;;4994071;28;20469;-84
2021/03/16 11:14:04;;;;;;;3.65;0.35;;;7.30;99.90;;;;;;5010076;28;20030;-84
2021/03/16 11:16:29;;;;;;;4.05;0.22;;;7.50;99.90;;;;;;5009746;28;20030;-84
2021/03/16 11:18:55;;;;;;;1.63;0.10;;;7.60;99.90;;;;;;4992638;28;20032;-85
2021/03/16 11:21:21;;;;;;;4.25;0.20;;;7.80;99.90;;;;;;4992290;28;20036;-84
2021/03/16 11:23:46;;;;;;;7.18;0.30;;;7.80;99.90;;;;;;4993452;28;20113;-84
2021/03/16 11:26:12;;;;;;;5.65;0.30;;;7.80;99.90;;;;;;4993258;28;20038;-85
2021/03/16 11:28:37;;;;;;;4.15;0.30;;;8.00;99.90;;;;;;4993238;28;20036;-85
2021/03/16 11:31:03;;;;;;;3.95;0.30;;;8.10;99.90;;;;;;4993051;28;20037;-84
2021/03/16 11:33:29;;;;;;;4.78;0.25;;;8.10;99.90;;;;;;5009686;28;20030;-84
2021/03/16 11:36:14;;;;;;;3.78;0.30;;;8.30;99.90;;;;;;5026609;28;20060;-85
2021/03/16 11:38:58;;;;;;;4.40;0.38;;;8.30;99.90;;;;;;5012151;28;20045;-84
2021/03/16 11:41:42;;;;;;;11.73;0.40;;;8.20;99.90;;;;;;5012204;28;20036;-83
2021/03/16 11:44:26;;;;;;;5.22;0.30;;;8.20;99.90;;;;;;5012171;28;20085;-83
2021/03/16 11:47:11;;;;;;;7.43;0.40;;;8.40;99.90;;;;;;5012027;28;20123;-83
2021/03/16 11:49:55;;;;;;;6.25;0.30;;;8.50;99.90;;;;;;5011879;28;20028;-82
2021/03/16 11:52:39;;;;;;;6.68;0.30;;;8.60;99.90;;;;;;5024547;28;20071;-85
2021/03/16 11:55:23;;;;;;;6.28;0.52;;;8.80;99.90;;;;;;5026697;28;20057;-83
2021/03/16 11:58:07;;;;;;;4.78;0.20;;;8.80;99.90;;;;;;5026718;28;20048;-83
2021/03/16 12:00:52;;;;;;;6.38;0.70;;;8.80;99.90;;;;;;5025320;28;20076;-83
2021/03/16 12:03:37;;;;;;;5.50;0.40;;;8.80;99.90;;;;;;5025588;28;20097;-83
2021/03/16 12:06:21;;;;;;;6.13;0.30;;;8.90;99.90;;;;;;5024975;28;20084;-82
2021/03/16 12:09:07;;;;;;;8.68;0.50;;;8.80;99.90;;;;;;5026161;28;20448;-82
2021/03/16 12:11:51;;;;;;;6.53;0.38;;;8.90;99.90;;;;;;5026340;28;20084;-82
2021/03/16 12:14:37;;;;;;;4.47;0.30;;;8.80;99.90;;;;;;5026237;28;20036;-82
2021/03/16 12:17:21;;;;;;;4.43;0.20;;;8.60;99.90;;;;;;5010550;28;20045;-81
2021/03/16 12:20:07;;;;;;;4.13;0.50;;;8.50;99.90;;;;;;5010999;28;20064;-82
2021/03/16 12:22:51;;;;;;;4.53;0.43;;;8.40;99.90;;;;;;5011067;28;20421;-82
2021/03/16 12:25:35;;;;;;;7.80;0.40;;;8.00;99.90;;;;;;5011063;28;20563;-82
2021/03/16 12:28:20;;;;;;;5.20;0.40;;;7.70;99.90;;;;;;5011124;28;20079;-82
2021/03/16 12:31:04;;;;;;;8.48;0.60;;;7.80;99.90;;;;;;5010838;28;20102;-82
2021/03/16 12:33:49;;;;;;;5.88;0.30;;;7.80;99.90;;;;;;5011083;28;20095;-82
2021/03/16 12:36:33;;;;;;;12.68;1.40;;;8.00;99.90;;;;;;5010779;28;20117;-82
2021/03/16 12:39:17;;;;;;;5.50;0.30;;;8.20;99.90;;;;;;5010527;28;20111;-82
2021/03/16 12:42:02;;;;;;;7.07;0.82;;;8.20;99.90;;;;;;5010671;28;20052;-82
2021/03/16 12:44:47;;;;;;;3.03;0.20;;;8.20;99.90;;;;;;5011000;28;20069;-82
2021/03/16 12:47:31;;;;;;;3.22;0.30;;;7.90;99.90;;;;;;5010588;28;20111;-82
2021/03/16 12:50:15;;;;;;;4.90;0.30;;;7.60;99.90;;;;;;5010506;28;20037;-82
2021/03/16 12:52:59;;;;;;;5.68;0.30;;;7.50;99.90;;;;;;5010593;28;20045;-82
2021/03/16 12:55:43;;;;;;;4.40;0.30;;;7.60;99.90;;;;;;5010474;28;20045;-82
2021/03/16 12:58:28;;;;;;;2.00;0.20;;;7.60;99.90;;;;;;5010657;28;20107;-82
2021/03/16 13:01:12;;;;;;;3.03;0.20;;;8.00;99.90;;;;;;5010494;28;20064;-82
2021/03/16 13:03:56;;;;;;;3.17;0.30;;;8.30;99.90;;;;;;5010332;28;20045;-82
2021/03/16 13:06:40;;;;;;;3.70;0.20;;;8.50;99.90;;;;;;5010228;28;20049;-82
2021/03/16 13:09:24;;;;;;;7.30;1.23;;;8.90;99.90;;;;;;5024994;28;20115;-81
2021/03/16 13:12:09;;;;;;;4.75;0.30;;;9.40;99.90;;;;;;5010356;28;20084;-82
2021/03/16 13:14:53;;;;;;;5.50;0.30;;;9.20;99.90;;;;;;5010450;28;20118;-82
2021/03/16 13:17:37;;;;;;;9.30;0.45;;;9.10;99.90;;;;;;5010373;28;20124;-81
2021/03/16 13:20:22;;;;;;;5.57;0.32;;;8.90;99.90;;;;;;5010232;28;20041;-82
2021/03/16 13:23:06;;;;;;;6.50;0.30;;;8.80;99.90;;;;;;5010021;28;20120;-81
2021/03/16 13:25:50;;;;;;;4.25;0.30;;;8.70;99.90;;;;;;5010112;28;20052;-81
2021/03/16 13:28:34;;;;;;;9.07;0.40;;;8.50;99.90;;;;;;5010281;28;20512;-82
2021/03/16 13:31:19;;;;;;;2.92;0.30;;;8.40;99.90;;;;;;5024989;28;20041;-82
2021/03/16 13:34:03;;;;;;;3.35;0.20;;;8.40;99.90;;;;;;5025111;28;20124;-82
2021/03/16 13:36:47;;;;;;;6.28;0.22;;;8.50;99.90;;;;;;5009880;28;20495;-82
2021/03/16 13:39:31;;;;;;;4.80;0.20;;;8.50;99.90;;;;;;5009894;28;20064;-82
2021/03/16 13:42:15;;;;;;;3.47;0.40;;;8.60;99.90;;;;;;5024858;28;20076;-82
2021/03/16 13:44:59;;;;;;;5.22;0.22;;;8.20;99.90;;;;;;5009927;28;20160;-81
2021/03/16 13:47:43;;;;;;;6.15;0.52;;;8.10;99.90;;;;;;5010122;28;20057;-82
2021/03/16 13:50:28;;;;;;;3.35;0.45;;;8.30;99.90;;;;;;5003367;28;20049;-82
2021/03/16 13:53:12;;;;;;;3.53;0.40;;;8.20;99.90;;;;;;4990336;28;20045;-81
2021/03/16 13:55:56;;;;;;;1.85;0.20;;;8.30;99.90;;;;;;4990433;28;20038;-81
2021/03/16 13:58:40;;;;;;;5.05;0.20;;;8.30;99.90;;;;;;4990539;28;20046;-82
2021/03/16 14:01:24;;;;;;;3.15;0.20;;;8.30;99.90;;;;;;4990508;28;20037;-82
2021/03/16 14:04:09;;;;;;;7.72;0.40;;;8.50;99.90;;;;;;4990452;28;20034;-83
2021/03/16 14:06:53;;;;;;;7.07;0.40;;;8.20;99.90;;;;;;4990005;28;20061;-81